sensor_id;sensor_type;location;lat;lon;timestamp;pressure;altitude;pressure_sealevel;temperature;humidity
78198;BME280;67472;51.554;7.812;2023-03-01T00:01:07;102195.91;;;-3.28;100.00
78198;BME280;67472;51.554;7.812;2023-03-01T00:03:52;102191.59;;;-3.18;100.00
78198;BME280;67472;51.554;7.812;2023-03-01T00:06:37;102183.00;;;-3.29;100.00
78198;BME280;67472;51.554;7.812;2023-03-01T00:09:28;102180.44;;;-3.38;100.00
78198;BME280;67472;51.554;7.812;2023-03-01T00:12:13;102171.84;;;-3.47;100.00
78198;BME280;67472;51.554;7.812;2023-03-01T00:14:57;102186.50;;;-3.49;100.00
78198;BME280;67472;51.554;7.812;2023-03-01T00:17:42;102179.59;;;-3.59;100.00
78198;BME280;67472;51.554;7.812;2023-03-01T00:20:26;102183.91;;;-3.71;100.00
78198;BME280;67472;51.554;7.812;2023-03-01T00:23:11;102178.75;;;-3.85;100.00
78198;BME280;67472;51.554;7.812;2023-03-01T00:25:55;102182.19;;;-3.89;100.00
78198;BME280;67472;51.554;7.812;2023-03-01T00:28:41;102176.19;;;-3.86;100.00
78198;BME280;67472;51.554;7.812;2023-03-01T00:31:28;102171.88;;;-3.84;100.00
78198;BME280;67472;51.554;7.812;2023-03-01T00:34:13;102173.59;;;-3.98;100.00
78198;BME280;67472;51.554;7.812;2023-03-01T00:36:57;102173.56;;;-4.03;100.00
78198;BME280;67472;51.554;7.812;2023-03-01T00:39:49;102179.56;;;-4.12;100.00
78198;BME280;67472;51.554;7.812;2023-03-01T00:42:33;102175.31;;;-4.10;100.00
78198;BME280;67472;51.554;7.812;2023-03-01T00:45:18;102160.66;;;-4.11;100.00
78198;BME280;67472;51.554;7.812;2023-03-01T00:48:04;102158.09;;;-4.12;100.00
78198;BME280;67472;51.554;7.812;2023-03-01T00:50:49;102154.66;;;-4.11;100.00
78198;BME280;67472;51.554;7.812;2023-03-01T00:53:34;102161.50;;;-4.21;100.00
78198;BME280;67472;51.554;7.812;2023-03-01T00:56:19;102158.94;;;-4.22;100.00
78198;BME280;67472;51.554;7.812;2023-03-01T00:59:03;102158.09;;;-4.24;100.00
78198;BME280;67472;51.554;7.812;2023-03-01T01:01:48;102161.53;;;-4.24;100.00
78198;BME280;67472;51.554;7.812;2023-03-01T01:04:32;102156.38;;;-4.27;100.00
78198;BME280;67472;51.554;7.812;2023-03-01T01:07:17;102160.63;;;-4.29;100.00
78198;BME280;67472;51.554;7.812;2023-03-01T01:10:04;102152.91;;;-4.27;100.00
78198;BME280;67472;51.554;7.812;2023-03-01T01:12:49;102152.94;;;-4.24;100.00
78198;BME280;67472;51.554;7.812;2023-03-01T01:15:34;102156.38;;;-4.19;100.00
78198;BME280;67472;51.554;7.812;2023-03-01T01:18:19;102160.66;;;-4.27;100.00
78198;BME280;67472;51.554;7.812;2023-03-01T01:21:09;102163.22;;;-4.36;100.00
78198;BME280;67472;51.554;7.812;2023-03-01T01:23:55;102163.22;;;-4.39;100.00
78198;BME280;67472;51.554;7.812;2023-03-01T01:26:40;102163.19;;;-4.41;100.00
78198;BME280;67472;51.554;7.812;2023-03-01T01:29:24;102166.66;;;-4.34;100.00
78198;BME280;67472;51.554;7.812;2023-03-01T01:32:09;102170.09;;;-4.38;100.00
78198;BME280;67472;51.554;7.812;2023-03-01T01:34:53;102173.53;;;-4.30;100.00
78198;BME280;67472;51.554;7.812;2023-03-01T01:37:38;102165.81;;;-4.33;100.00
78198;BME280;67472;51.554;7.812;2023-03-01T01:40:22;102166.66;;;-4.34;100.00
78198;BME280;67472;51.554;7.812;2023-03-01T01:43:16;102165.78;;;-4.35;100.00
78198;BME280;67472;51.554;7.812;2023-03-01T01:46:18;102153.75;;;-4.34;100.00
78198;BME280;67472;51.554;7.812;2023-03-01T01:49:19;102150.31;;;-4.35;100.00
78198;BME280;67472;51.554;7.812;2023-03-01T01:52:19;102147.75;;;-4.32;100.00
78198;BME280;67472;51.554;7.812;2023-03-01T01:55:14;102152.03;;;-4.32;100.00
78198;BME280;67472;51.554;7.812;2023-03-01T01:58:04;102145.16;;;-4.47;100.00
78198;BME280;67472;51.554;7.812;2023-03-01T02:00:51;102144.28;;;-4.53;100.00
78198;BME280;67472;51.554;7.812;2023-03-01T02:03:37;102141.69;;;-4.52;100.00
78198;BME280;67472;51.554;7.812;2023-03-01T02:06:29;102138.28;;;-4.42;100.00
78198;BME280;67472;51.554;7.812;2023-03-01T02:09:18;102139.16;;;-4.38;100.00
78198;BME280;67472;51.554;7.812;2023-03-01T02:12:04;102122.78;;;-4.46;100.00
78198;BME280;67472;51.554;7.812;2023-03-01T02:14:49;102130.53;;;-4.46;100.00
78198;BME280;67472;51.554;7.812;2023-03-01T02:17:33;102126.22;;;-4.46;100.00
78198;BME280;67472;51.554;7.812;2023-03-01T02:20:40;102115.91;;;-4.46;100.00
78198;BME280;67472;51.554;7.812;2023-03-01T02:23:29;102121.06;;;-4.52;100.00
78198;BME280;67472;51.554;7.812;2023-03-01T02:26:31;102121.06;;;-4.52;100.00
78198;BME280;67472;51.554;7.812;2023-03-01T02:29:19;102123.63;;;-4.58;100.00
78198;BME280;67472;51.554;7.812;2023-03-01T02:32:04;102130.53;;;-4.51;100.00
78198;BME280;67472;51.554;7.812;2023-03-01T02:34:50;102131.38;;;-4.46;100.00
78198;BME280;67472;51.554;7.812;2023-03-01T02:37:36;102134.84;;;-4.35;100.00
78198;BME280;67472;51.554;7.812;2023-03-01T02:40:21;102127.97;;;-4.28;100.00
78198;BME280;67472;51.554;7.812;2023-03-01T02:43:08;102134.88;;;-4.27;100.00
78198;BME280;67472;51.554;7.812;2023-03-01T02:45:57;102127.97;;;-4.48;100.00
78198;BME280;67472;51.554;7.812;2023-03-01T02:48:48;102134.81;;;-4.59;100.00
78198;BME280;67472;51.554;7.812;2023-03-01T02:57:14;102117.44;;;-5.13;100.00
78198;BME280;67472;51.554;7.812;2023-03-01T03:00:04;102114.88;;;-5.11;100.00
78198;BME280;67472;51.554;7.812;2023-03-01T03:02:53;102111.41;;;-5.15;100.00
78198;BME280;67472;51.554;7.812;2023-03-01T03:05:41;102116.56;;;-5.14;100.00
78198;BME280;67472;51.554;7.812;2023-03-01T03:08:25;102121.78;;;-5.03;100.00
78198;BME280;67472;51.554;7.812;2023-03-01T03:11:10;102115.75;;;-5.02;100.00
78198;BME280;67472;51.554;7.812;2023-03-01T03:13:55;102114.94;;;-4.95;100.00
78198;BME280;67472;51.554;7.812;2023-03-01T03:16:42;102114.09;;;-4.91;100.00
78198;BME280;67472;51.554;7.812;2023-03-01T03:19:26;102122.69;;;-4.87;100.00
78198;BME280;67472;51.554;7.812;2023-03-01T03:22:12;102115.81;;;-4.90;100.00
78198;BME280;67472;51.554;7.812;2023-03-01T03:24:56;102110.66;;;-4.91;100.00
78198;BME280;67472;51.554;7.812;2023-03-01T03:27:43;102109.78;;;-4.96;100.00
78198;BME280;67472;51.554;7.812;2023-03-01T03:30:31;102107.19;;;-5.01;100.00
78198;BME280;67472;51.554;7.812;2023-03-01T03:33:15;102095.19;;;-4.97;100.00
78198;BME280;67472;51.554;7.812;2023-03-01T03:36:00;102093.44;;;-4.98;100.00
78198;BME280;67472;51.554;7.812;2023-03-01T03:38:45;102090.03;;;-4.97;100.00
78198;BME280;67472;51.554;7.812;2023-03-01T03:41:29;102088.31;;;-5.00;100.00
78198;BME280;67472;51.554;7.812;2023-03-01T03:44:14;102084.84;;;-5.11;100.00
78198;BME280;67472;51.554;7.812;2023-03-01T03:46:58;102081.38;;;-5.10;100.00
78198;BME280;67472;51.554;7.812;2023-03-01T03:49:43;102073.66;;;-5.10;100.00
78198;BME280;67472;51.554;7.812;2023-03-01T03:52:27;102072.00;;;-5.05;100.00
78198;BME280;67472;51.554;7.812;2023-03-01T03:55:12;102067.66;;;-5.10;100.00
78198;BME280;67472;51.554;7.812;2023-03-01T03:57:58;102066.81;;;-5.06;100.00
78198;BME280;67472;51.554;7.812;2023-03-01T04:00:47;102075.34;;;-5.18;100.00
78198;BME280;67472;51.554;7.812;2023-03-01T04:03:33;102074.50;;;-5.23;100.00
78198;BME280;67472;51.554;7.812;2023-03-01T04:06:19;102076.13;;;-5.36;100.00
78198;BME280;67472;51.554;7.812;2023-03-01T04:09:03;102084.69;;;-5.43;100.00
78198;BME280;67472;51.554;7.812;2023-03-01T04:11:48;102084.69;;;-5.43;100.00
78198;BME280;67472;51.554;7.812;2023-03-01T04:14:32;102088.97;;;-5.43;100.00
78198;BME280;67472;51.554;7.812;2023-03-01T04:17:17;102089.78;;;-5.52;100.00
78198;BME280;67472;51.554;7.812;2023-03-01T04:20:03;102090.63;;;-5.57;100.00
78198;BME280;67472;51.554;7.812;2023-03-01T04:23:07;102088.06;;;-5.54;100.00
78198;BME280;67472;51.554;7.812;2023-03-01T04:25:56;102085.50;;;-5.53;100.00
78198;BME280;67472;51.554;7.812;2023-03-01T04:28:42;102093.22;;;-5.54;100.00
78198;BME280;67472;51.554;7.812;2023-03-01T04:31:30;102093.28;;;-5.41;100.00
78198;BME280;67472;51.554;7.812;2023-03-01T04:34:14;102091.56;;;-5.40;100.00
78198;BME280;67472;51.554;7.812;2023-03-01T04:36:58;102087.22;;;-5.47;100.00
78198;BME280;67472;51.554;7.812;2023-03-01T04:39:43;102083.81;;;-5.49;100.00
78198;BME280;67472;51.554;7.812;2023-03-01T04:42:29;102079.47;;;-5.56;100.00
78198;BME280;67472;51.554;7.812;2023-03-01T04:45:13;102085.44;;;-5.63;100.00
78198;BME280;67472;51.554;7.812;2023-03-01T04:47:58;102090.59;;;-5.62;100.00
78198;BME280;67472;51.554;7.812;2023-03-01T04:50:42;102084.59;;;-5.56;100.00
78198;BME280;67472;51.554;7.812;2023-03-01T04:53:28;102084.63;;;-5.55;100.00
78198;BME280;67472;51.554;7.812;2023-03-01T04:56:13;102084.59;;;-5.61;100.00
78198;BME280;67472;51.554;7.812;2023-03-01T04:58:57;102082.00;;;-5.62;100.00
78198;BME280;67472;51.554;7.812;2023-03-01T05:01:42;102086.31;;;-5.61;100.00
78198;BME280;67472;51.554;7.812;2023-03-01T05:04:27;102091.44;;;-5.61;100.00
78198;BME280;67472;51.554;7.812;2023-03-01T05:07:11;102095.78;;;-5.51;100.00
78198;BME280;67472;51.554;7.812;2023-03-01T05:09:57;102083.72;;;-5.60;100.00
78198;BME280;67472;51.554;7.812;2023-03-01T05:12:41;102080.28;;;-5.65;100.00
78198;BME280;67472;51.554;7.812;2023-03-01T05:15:26;102085.44;;;-5.62;100.00
78198;BME280;67472;51.554;7.812;2023-03-01T05:18:11;102082.88;;;-5.63;100.00
78198;BME280;67472;51.554;7.812;2023-03-01T05:21:11;102076.03;;;-5.57;100.00
78198;BME280;67472;51.554;7.812;2023-03-01T05:23:55;102078.56;;;-5.60;100.00
78198;BME280;67472;51.554;7.812;2023-03-01T05:26:40;102070.88;;;-5.57;100.00
78198;BME280;67472;51.554;7.812;2023-03-01T05:29:26;102069.22;;;-5.52;100.00
78198;BME280;67472;51.554;7.812;2023-03-01T05:32:11;102069.19;;;-5.55;100.00
78198;BME280;67472;51.554;7.812;2023-03-01T05:34:59;102065.72;;;-5.57;100.00
78198;BME280;67472;51.554;7.812;2023-03-01T05:37:45;102068.28;;;-5.57;100.00
78198;BME280;67472;51.554;7.812;2023-03-01T05:40:33;102074.38;;;-5.44;100.00
78198;BME280;67472;51.554;7.812;2023-03-01T05:43:17;102070.06;;;-5.45;100.00
78198;BME280;67472;51.554;7.812;2023-03-01T05:46:02;102074.34;;;-5.50;100.00
78198;BME280;67472;51.554;7.812;2023-03-01T05:48:46;102073.44;;;-5.58;100.00
78198;BME280;67472;51.554;7.812;2023-03-01T05:51:32;102081.13;;;-5.67;100.00
78198;BME280;67472;51.554;7.812;2023-03-01T05:54:18;102076.78;;;-5.73;100.00
78198;BME280;67472;51.554;7.812;2023-03-01T05:57:03;102075.03;;;-5.82;100.00
78198;BME280;67472;51.554;7.812;2023-03-01T05:59:47;102069.84;;;-5.83;100.00
78198;BME280;67472;51.554;7.812;2023-03-01T06:02:32;102072.44;;;-5.85;100.00
78198;BME280;67472;51.554;7.812;2023-03-01T06:05:18;102075.84;;;-5.89;100.00
78198;BME280;67472;51.554;7.812;2023-03-01T06:08:03;102079.28;;;-5.88;100.00
78198;BME280;67472;51.554;7.812;2023-03-01T06:10:48;102081.88;;;-5.85;100.00
78198;BME280;67472;51.554;7.812;2023-03-01T06:13:32;102087.88;;;-5.85;100.00
78198;BME280;67472;51.554;7.812;2023-03-01T06:16:16;102087.03;;;-5.82;100.00
78198;BME280;67472;51.554;7.812;2023-03-01T06:19:01;102087.03;;;-5.85;100.00
78198;BME280;67472;51.554;7.812;2023-03-01T06:21:46;102085.28;;;-5.83;100.00
78198;BME280;67472;51.554;7.812;2023-03-01T06:24:30;102089.59;;;-5.84;100.00
78198;BME280;67472;51.554;7.812;2023-03-01T06:27:15;102082.72;;;-5.83;100.00
78198;BME280;67472;51.554;7.812;2023-03-01T06:29:59;102081.06;;;-5.77;100.00
78198;BME280;67472;51.554;7.812;2023-03-01T06:32:44;102081.13;;;-5.67;100.00
78198;BME280;67472;51.554;7.812;2023-03-01T06:35:29;102082.84;;;-5.62;100.00
78198;BME280;67472;51.554;7.812;2023-03-01T06:38:14;102080.34;;;-5.57;100.00
78198;BME280;67472;51.554;7.812;2023-03-01T06:40:59;102076.06;;;-5.49;100.00
78198;BME280;67472;51.554;7.812;2023-03-01T06:43:43;102078.69;;;-5.42;100.00
78198;BME280;67472;51.554;7.812;2023-03-01T06:46:28;102077.84;;;-5.38;100.00
78198;BME280;67472;51.554;7.812;2023-03-01T06:49:12;102078.75;;;-5.31;100.00
78198;BME280;67472;51.554;7.812;2023-03-01T06:51:57;102073.59;;;-5.28;100.00
78198;BME280;67472;51.554;7.812;2023-03-01T06:54:41;102065.06;;;-5.20;100.00
78198;BME280;67472;51.554;7.812;2023-03-01T06:57:26;102067.66;;;-5.12;100.00
78198;BME280;67472;51.554;7.812;2023-03-01T07:00:11;102072.78;;;-5.10;100.00
78198;BME280;67472;51.554;7.812;2023-03-01T07:03:00;102065.09;;;-5.04;100.00
78198;BME280;67472;51.554;7.812;2023-03-01T07:05:49;102070.28;;;-4.95;100.00
78198;BME280;67472;51.554;7.812;2023-03-01T07:08:34;102080.63;;;-4.85;100.00
78198;BME280;67472;51.554;7.812;2023-03-01T07:11:18;102074.63;;;-4.76;100.00
78198;BME280;67472;51.554;7.812;2023-03-01T07:14:02;102078.06;;;-4.70;100.00
78198;BME280;67472;51.554;7.812;2023-03-01T07:16:47;102075.53;;;-4.56;100.00
78198;BME280;67472;51.554;7.812;2023-03-01T07:19:32;102074.66;;;-4.49;100.00
78198;BME280;67472;51.554;7.812;2023-03-01T07:22:16;102070.38;;;-4.36;100.00
78198;BME280;67472;51.554;7.812;2023-03-01T07:25:01;102069.50;;;-4.32;100.00
78198;BME280;67472;51.554;7.812;2023-03-01T07:27:50;102074.69;;;-4.20;100.00
78198;BME280;67472;51.554;7.812;2023-03-01T07:30:34;102071.25;;;-4.12;100.00
78198;BME280;67472;51.554;7.812;2023-03-01T07:33:19;102062.63;;;-4.00;100.00
78198;BME280;67472;51.554;7.812;2023-03-01T07:36:04;102058.34;;;-3.92;100.00
78198;BME280;67472;51.554;7.812;2023-03-01T07:38:49;102060.03;;;-3.85;100.00
78198;BME280;67472;51.554;7.812;2023-03-01T07:41:34;102053.13;;;-3.77;100.00
78198;BME280;67472;51.554;7.812;2023-03-01T07:44:18;102054.00;;;-3.69;100.00
78198;BME280;67472;51.554;7.812;2023-03-01T07:47:03;102057.41;;;-3.61;100.00
78198;BME280;67472;51.554;7.812;2023-03-01T07:49:48;102055.66;;;-3.53;100.00
78198;BME280;67472;51.554;7.812;2023-03-01T07:52:33;102060.78;;;-3.45;100.00
78198;BME280;67472;51.554;7.812;2023-03-01T07:55:17;102057.31;;;-3.35;100.00
78198;BME280;67472;51.554;7.812;2023-03-01T07:58:02;102062.47;;;-3.26;100.00
78198;BME280;67472;51.554;7.812;2023-03-01T08:00:46;102053.78;;;-3.19;100.00
78198;BME280;67472;51.554;7.812;2023-03-01T08:03:30;102045.09;;;-3.01;100.00
78198;BME280;67472;51.554;7.812;2023-03-01T08:06:16;102040.72;;;-2.89;100.00
78198;BME280;67472;51.554;7.812;2023-03-01T08:09:01;102045.81;;;-2.78;100.00
78198;BME280;67472;51.554;7.812;2023-03-01T08:11:45;102044.03;;;-2.65;100.00
78198;BME280;67472;51.554;7.812;2023-03-01T08:14:31;102041.31;;;-2.47;100.00
78198;BME280;67472;51.554;7.812;2023-03-01T08:17:15;102036.97;;;-2.42;100.00
78198;BME280;67472;51.554;7.812;2023-03-01T08:19:59;102034.25;;;-2.24;100.00
78198;BME280;67472;51.554;7.812;2023-03-01T08:22:44;102031.66;;;-2.25;100.00
78198;BME280;67472;51.554;7.812;2023-03-01T08:25:28;102022.09;;;-2.16;100.00
78198;BME280;67472;51.554;7.812;2023-03-01T08:28:12;102021.94;;;-2.02;100.00
78198;BME280;67472;51.554;7.812;2023-03-01T08:30:57;102014.97;;;-1.93;100.00
78198;BME280;67472;51.554;7.812;2023-03-01T08:33:42;102015.78;;;-1.91;100.00
78198;BME280;67472;51.554;7.812;2023-03-01T08:36:29;102012.31;;;-1.87;100.00
78198;BME280;67472;51.554;7.812;2023-03-01T08:39:16;102004.44;;;-1.79;100.00
78198;BME280;67472;51.554;7.812;2023-03-01T08:42:00;101999.13;;;-1.65;100.00
78198;BME280;67472;51.554;7.812;2023-03-01T08:44:45;101992.88;;;-1.49;100.00
78198;BME280;67472;51.554;7.812;2023-03-01T08:47:29;101995.28;;;-1.34;100.00
78198;BME280;67472;51.554;7.812;2023-03-01T08:50:14;101992.50;;;-1.21;100.00
78198;BME280;67472;51.554;7.812;2023-03-01T08:52:58;101989.63;;;-0.99;100.00
78198;BME280;67472;51.554;7.812;2023-03-01T08:55:42;101986.00;;;-0.89;100.00
78198;BME280;67472;51.554;7.812;2023-03-01T08:58:27;101981.69;;;-0.87;100.00
78198;BME280;67472;51.554;7.812;2023-03-01T09:01:13;101984.97;;;-0.76;100.00
78198;BME280;67472;51.554;7.812;2023-03-01T09:03:58;101976.22;;;-0.71;100.00
78198;BME280;67472;51.554;7.812;2023-03-01T09:06:43;101969.94;;;-0.56;100.00
78198;BME280;67472;51.554;7.812;2023-03-01T09:09:27;101979.06;;;-0.34;100.00
78198;BME280;67472;51.554;7.812;2023-03-01T09:12:12;101970.31;;;-0.28;100.00
78198;BME280;67472;51.554;7.812;2023-03-01T09:14:56;101970.19;;;-0.21;100.00
78198;BME280;67472;51.554;7.812;2023-03-01T09:17:41;101960.41;;;-0.07;100.00
78198;BME280;67472;51.554;7.812;2023-03-01T09:20:25;101944.78;;;-0.05;100.00
78198;BME280;67472;51.554;7.812;2023-03-01T09:23:10;101938.56;;;0.04;100.00
78198;BME280;67472;51.554;7.812;2023-03-01T09:25:54;101930.41;;;0.22;100.00
78198;BME280;67472;51.554;7.812;2023-03-01T09:28:39;101916.25;;;0.36;100.00
78198;BME280;67472;51.554;7.812;2023-03-01T09:31:24;101909.16;;;0.44;100.00
78198;BME280;67472;51.554;7.812;2023-03-01T09:34:09;101903.63;;;0.60;100.00
78198;BME280;67472;51.554;7.812;2023-03-01T09:36:54;101898.09;;;0.73;100.00
78198;BME280;67472;51.554;7.812;2023-03-01T09:39:38;101890.47;;;1.04;100.00
78198;BME280;67472;51.554;7.812;2023-03-01T09:42:23;101882.47;;;1.11;100.00
78198;BME280;67472;51.554;7.812;2023-03-01T09:45:19;101882.97;;;1.26;100.00
78198;BME280;67472;51.554;7.812;2023-03-01T09:48:14;101872.53;;;1.27;100.00
78198;BME280;67472;51.554;7.812;2023-03-01T09:51:03;101872.41;;;1.32;100.00
78198;BME280;67472;51.554;7.812;2023-03-01T09:53:50;101868.47;;;1.49;100.00
78198;BME280;67472;51.554;7.812;2023-03-01T09:56:46;101869.00;;;1.62;100.00
78198;BME280;67472;51.554;7.812;2023-03-01T10:02:54;101842.53;;;1.77;100.00
78198;BME280;67472;51.554;7.812;2023-03-01T10:05:52;101832.78;;;1.85;100.00
78198;BME280;67472;51.554;7.812;2023-03-01T10:08:42;101833.31;;;1.96;100.00
78198;BME280;67472;51.554;7.812;2023-03-01T10:11:37;101830.53;;;2.02;100.00
78198;BME280;67472;51.554;7.812;2023-03-01T10:14:32;101820.03;;;2.05;100.00
78198;BME280;67472;51.554;7.812;2023-03-01T10:17:46;101808.47;;;2.14;100.00
78198;BME280;67472;51.554;7.812;2023-03-01T10:20:46;101824.94;;;2.44;100.00
78198;BME280;67472;51.554;7.812;2023-03-01T10:23:35;101815.06;;;2.53;100.00
78198;BME280;67472;51.554;7.812;2023-03-01T10:26:32;101799.72;;;2.70;100.00
78198;BME280;67472;51.554;7.812;2023-03-01T10:29:26;101794.31;;;2.76;100.00
78198;BME280;67472;51.554;7.812;2023-03-01T10:32:14;101770.94;;;2.73;100.00
78198;BME280;67472;51.554;7.812;2023-03-01T10:34:58;101786.78;;;2.94;100.00
78198;BME280;67472;51.554;7.812;2023-03-01T10:38:03;101774.03;;;2.84;100.00
78198;BME280;67472;51.554;7.812;2023-03-01T10:46:32;101768.31;;;3.00;100.00
78198;BME280;67472;51.554;7.812;2023-03-01T10:49:20;101754.44;;;3.24;100.00
78198;BME280;67472;51.554;7.812;2023-03-01T10:52:18;101755.84;;;3.32;100.00
78198;BME280;67472;51.554;7.812;2023-03-01T10:55:24;101755.69;;;3.60;100.00
78198;BME280;67472;51.554;7.812;2023-03-01T11:01:04;101737.50;;;3.34;100.00
78198;BME280;67472;51.554;7.812;2023-03-01T11:06:59;101750.31;;;3.41;98.96
78198;BME280;67472;51.554;7.812;2023-03-01T11:09:44;101746.34;;;3.55;99.91
78198;BME280;67472;51.554;7.812;2023-03-01T11:12:28;101743.16;;;3.70;99.92
78198;BME280;67472;51.554;7.812;2023-03-01T11:15:26;101735.94;;;3.76;98.45
78198;BME280;67472;51.554;7.812;2023-03-01T11:18:22;101734.53;;;3.91;97.77
78198;BME280;67472;51.554;7.812;2023-03-01T11:21:07;101730.03;;;3.94;96.24
78198;BME280;67472;51.554;7.812;2023-03-01T11:23:53;101710.34;;;4.08;94.52
78198;BME280;67472;51.554;7.812;2023-03-01T11:26:44;101731.56;;;4.22;95.93
78198;BME280;67472;51.554;7.812;2023-03-01T11:32:17;101707.47;;;4.35;93.27
78198;BME280;67472;51.554;7.812;2023-03-01T11:35:16;101705.72;;;4.14;92.00
78198;BME280;67472;51.554;7.812;2023-03-01T11:41:14;101713.00;;;4.49;92.01
78198;BME280;67472;51.554;7.812;2023-03-01T11:44:12;101707.19;;;4.63;90.34
78198;BME280;67472;51.554;7.812;2023-03-01T11:56:29;101700.25;;;4.20;88.75
78198;BME280;67472;51.554;7.812;2023-03-01T12:00:05;101705.41;;;4.43;89.37
78198;BME280;67472;51.554;7.812;2023-03-01T12:20:48;101662.72;;;5.22;83.96
78198;BME280;67472;51.554;7.812;2023-03-01T12:23:54;101650.63;;;5.38;82.67
78198;BME280;67472;51.554;7.812;2023-03-01T12:36:06;101624.34;;;5.21;80.47
78198;BME280;67472;51.554;7.812;2023-03-01T12:51:11;101587.72;;;5.94;77.33
78198;BME280;67472;51.554;7.812;2023-03-01T12:53:59;101586.09;;;6.09;76.33
78198;BME280;67472;51.554;7.812;2023-03-01T12:56:46;101573.00;;;6.09;75.37
78198;BME280;67472;51.554;7.812;2023-03-01T12:59:46;101577.44;;;5.90;74.95
78198;BME280;67472;51.554;7.812;2023-03-01T13:08:50;101550.72;;;5.46;73.30
78198;BME280;67472;51.554;7.812;2023-03-01T13:11:42;101560.06;;;5.51;73.83
78198;BME280;67472;51.554;7.812;2023-03-01T13:17:32;101545.00;;;6.27;72.66
78198;BME280;67472;51.554;7.812;2023-03-01T13:20:19;101516.63;;;5.82;70.73
78198;BME280;67472;51.554;7.812;2023-03-01T13:23:09;101506.22;;;5.63;70.16
78198;BME280;67472;51.554;7.812;2023-03-01T13:28:56;101521.25;;;5.59;70.19
78198;BME280;67472;51.554;7.812;2023-03-01T13:34:50;101520.97;;;5.83;70.93
78198;BME280;67472;51.554;7.812;2023-03-01T13:37:37;101520.13;;;5.82;70.97
78198;BME280;67472;51.554;7.812;2023-03-01T13:43:59;101524.31;;;6.03;70.09
78198;BME280;67472;51.554;7.812;2023-03-01T13:47:36;101517.44;;;6.35;70.09
78198;BME280;67472;51.554;7.812;2023-03-01T13:50:16;101499.88;;;6.36;68.91
78198;BME280;67472;51.554;7.812;2023-03-01T13:53:16;101506.13;;;6.00;69.28
78198;BME280;67472;51.554;7.812;2023-03-01T13:56:17;101498.97;;;6.37;69.26
78198;BME280;67472;51.554;7.812;2023-03-01T13:59:21;101496.78;;;6.12;68.57
78198;BME280;67472;51.554;7.812;2023-03-01T14:02:19;101486.69;;;5.87;68.99
78198;BME280;67472;51.554;7.812;2023-03-01T14:05:04;101479.88;;;6.17;67.80
78198;BME280;67472;51.554;7.812;2023-03-01T14:07:51;101469.53;;;6.14;67.44
78198;BME280;67472;51.554;7.812;2023-03-01T14:16:37;101486.13;;;6.15;68.35
78198;BME280;67472;51.554;7.812;2023-03-01T14:19:29;101486.97;;;6.15;68.59
78198;BME280;67472;51.554;7.812;2023-03-01T14:22:28;101473.94;;;6.14;68.24
78198;BME280;67472;51.554;7.812;2023-03-01T14:25:23;101493.88;;;6.34;69.80
78198;BME280;67472;51.554;7.812;2023-03-01T14:28:15;101475.72;;;6.46;69.06
78198;BME280;67472;51.554;7.812;2023-03-01T14:31:01;101469.16;;;6.70;68.62
78198;BME280;67472;51.554;7.812;2023-03-01T14:33:54;101453.47;;;6.53;68.31
78198;BME280;67472;51.554;7.812;2023-03-01T14:36:38;101437.50;;;6.25;67.44
78198;BME280;67472;51.554;7.812;2023-03-01T14:39:24;101469.66;;;6.29;69.22
78198;BME280;67472;51.554;7.812;2023-03-01T14:42:12;101454.34;;;6.21;68.89
78198;BME280;67472;51.554;7.812;2023-03-01T14:45:00;101457.41;;;6.29;69.00
78198;BME280;67472;51.554;7.812;2023-03-01T14:47:45;101471.31;;;6.14;68.76
78198;BME280;67472;51.554;7.812;2023-03-01T14:50:32;101455.09;;;6.23;68.63
78198;BME280;67472;51.554;7.812;2023-03-01T14:53:21;101451.63;;;6.22;69.14
78198;BME280;67472;51.554;7.812;2023-03-01T14:56:13;101435.69;;;5.93;67.40
78198;BME280;67472;51.554;7.812;2023-03-01T14:58:58;101438.44;;;6.07;68.01
78198;BME280;67472;51.554;7.812;2023-03-01T15:01:44;101433.91;;;6.10;67.69
78198;BME280;67472;51.554;7.812;2023-03-01T15:04:29;101431.53;;;6.06;67.65
78198;BME280;67472;51.554;7.812;2023-03-01T15:07:15;101438.78;;;6.01;68.88
78198;BME280;67472;51.554;7.812;2023-03-01T15:10:01;101433.44;;;6.19;68.94
78198;BME280;67472;51.554;7.812;2023-03-01T15:12:45;101431.28;;;6.10;68.31
78198;BME280;67472;51.554;7.812;2023-03-01T15:15:35;101430.06;;;6.33;68.96
78198;BME280;67472;51.554;7.812;2023-03-01T15:18:22;101424.69;;;6.52;68.83
78198;BME280;67472;51.554;7.812;2023-03-01T15:21:17;101415.72;;;6.71;68.03
78198;BME280;67472;51.554;7.812;2023-03-01T15:26:58;101401.25;;;6.96;67.23
78198;BME280;67472;51.554;7.812;2023-03-01T15:29:52;101398.78;;;6.77;66.63
78198;BME280;67472;51.554;7.812;2023-03-01T15:32:37;101399.66;;;6.13;66.88
78198;BME280;67472;51.554;7.812;2023-03-01T15:35:38;101414.38;;;6.16;69.10
78198;BME280;67472;51.554;7.812;2023-03-01T15:38:28;101413.78;;;6.11;69.44
78198;BME280;67472;51.554;7.812;2023-03-01T15:41:46;101427.84;;;6.25;70.61
78198;BME280;67472;51.554;7.812;2023-03-01T15:44:34;101414.84;;;6.07;70.46
78198;BME280;67472;51.554;7.812;2023-03-01T15:47:29;101407.16;;;5.87;69.81
78198;BME280;67472;51.554;7.812;2023-03-01T15:50:18;101420.19;;;6.05;69.97
78198;BME280;67472;51.554;7.812;2023-03-01T15:53:10;101416.44;;;5.94;70.24
78198;BME280;67472;51.554;7.812;2023-03-01T15:55:56;101412.06;;;6.10;69.04
78198;BME280;67472;51.554;7.812;2023-03-01T15:58:40;101407.00;;;5.72;69.94
78198;BME280;67472;51.554;7.812;2023-03-01T16:01:44;101402.22;;;5.46;69.72
78198;BME280;67472;51.554;7.812;2023-03-01T16:05:26;101398.00;;;5.44;67.93
78198;BME280;67472;51.554;7.812;2023-03-01T16:15:40;101420.38;;;5.15;70.58
78198;BME280;67472;51.554;7.812;2023-03-01T16:18:26;101428.38;;;5.12;71.30
78198;BME280;67472;51.554;7.812;2023-03-01T16:22:28;101431.72;;;4.97;71.70
78198;BME280;67472;51.554;7.812;2023-03-01T16:25:18;101436.19;;;4.76;72.30